Time;durP1;ratioP1;P1;durP2;ratioP2;P2;SDS_P1;SDS_P2;PMS_P1;PMS_P2;Temp;Humidity;BMP_temperature;BMP_pressure;BME280_temperature;BME280_humidity;BME280_pressure;Samples;Min_cycle;Max_cycle;Signal;HPM_P1;HPM_P2
2023/11/08 00:01:52;;;;;;;10.85;10.52;;;;;;;;;;4131351;28;20328;-57
2023/11/08 00:03:54;;;;;;;13.38;11.98;;;;;;;;;;4114533;28;20626;-57
2023/11/08 00:05:56;;;;;;;11.95;11.40;;;;;;;;;;4131424;28;20050;-57
2023/11/08 00:07:57;;;;;;;12.03;11.37;;;;;;;;;;4131585;28;20048;-57
2023/11/08 00:09:59;;;;;;;12.67;11.93;;;;;;;;;;4131473;28;20042;-57
2023/11/08 00:12:01;;;;;;;12.70;12.07;;;;;;;;;;4131552;28;20042;-57
2023/11/08 00:14:03;;;;;;;12.70;12.27;;;;;;;;;;4131510;28;20706;-57
2023/11/08 00:16:06;;;;;;;14.53;13.80;;;;;;;;;;4131516;28;20042;-57
2023/11/08 00:18:07;;;;;;;;;;;;;;;;;;4130613;28;20062;-57
2023/11/08 00:20:10;;;;;;;15.00;14.50;;;;;;;;;;4131381;28;19929;-58
2023/11/08 00:22:12;;;;;;;17.88;16.90;;;;;;;;;;4136402;28;20088;-57
2023/11/08 00:24:14;;;;;;;16.07;15.73;;;;;;;;;;4131985;28;20104;-57
2023/11/08 00:26:16;;;;;;;14.75;13.70;;;;;;;;;;4127070;28;20042;-58
2023/11/08 00:28:17;;;;;;;13.52;13.15;;;;;;;;;;4108367;28;20499;-57
2023/11/08 00:30:19;;;;;;;13.30;12.90;;;;;;;;;;4127378;28;20053;-57
2023/11/08 00:32:21;;;;;;;15.40;14.67;;;;;;;;;;4118698;28;20394;-57
2023/11/08 00:34:23;;;;;;;15.07;14.27;;;;;;;;;;4118783;28;20070;-57
2023/11/08 00:36:25;;;;;;;16.23;15.45;;;;;;;;;;4118579;28;20121;-58
2023/11/08 00:38:27;;;;;;;16.43;15.97;;;;;;;;;;4118531;28;20082;-57
2023/11/08 00:40:28;;;;;;;15.73;14.85;;;;;;;;;;4118505;28;20039;-56
2023/11/08 00:42:30;;;;;;;15.65;14.50;;;;;;;;;;4118552;28;20426;-56
2023/11/08 00:44:32;;;;;;;16.23;15.68;;;;;;;;;;4118447;28;20039;-56
2023/11/08 00:46:33;;;;;;;14.57;13.70;;;;;;;;;;4118154;28;20035;-57
2023/11/08 00:48:36;;;;;;;16.60;15.77;;;;;;;;;;4118717;28;20038;-57
2023/11/08 00:50:37;;;;;;;;;;;;;;;;;;4118767;28;20101;-58
2023/11/08 00:52:39;;;;;;;14.10;13.45;;;;;;;;;;4118531;28;19953;-57
2023/11/08 00:54:41;;;;;;;15.77;14.63;;;;;;;;;;4118211;28;20145;-57
2023/11/08 00:56:42;;;;;;;15.67;14.50;;;;;;;;;;4124402;28;20348;-58
2023/11/08 00:58:44;;;;;;;15.30;14.30;;;;;;;;;;4134347;28;20089;-57
2023/11/08 01:00:46;;;;;;;15.87;14.47;;;;;;;;;;4117006;28;20074;-57
2023/11/08 01:02:48;;;;;;;12.73;12.13;;;;;;;;;;4134453;28;20562;-57
2023/11/08 01:04:49;;;;;;;12.23;11.93;;;;;;;;;;4134260;28;20277;-57
2023/11/08 01:06:51;;;;;;;12.25;11.77;;;;;;;;;;4134095;28;20081;-57
2023/11/08 01:08:54;;;;;;;14.15;13.27;;;;;;;;;;4134017;28;20129;-57
2023/11/08 01:10:56;;;;;;;12.27;11.47;;;;;;;;;;4134288;28;20251;-57
2023/11/08 01:12:57;;;;;;;11.40;10.93;;;;;;;;;;4134330;28;20294;-56
2023/11/08 01:14:59;;;;;;;14.87;13.83;;;;;;;;;;4133752;28;20100;-57
2023/11/08 01:17:01;;;;;;;12.23;11.65;;;;;;;;;;4133722;28;20038;-57
2023/11/08 01:19:03;;;;;;;14.07;13.38;;;;;;;;;;4137123;28;20097;-57
2023/11/08 01:21:05;;;;;;;11.05;10.82;;;;;;;;;;4115878;28;20105;-58
2023/11/08 01:23:07;;;;;;;13.02;12.32;;;;;;;;;;4133921;28;20038;-57
2023/11/08 01:25:09;;;;;;;12.35;11.38;;;;;;;;;;4134193;28;20034;-57
2023/11/08 01:27:10;;;;;;;11.10;10.83;;;;;;;;;;4133799;28;20039;-57
2023/11/08 01:29:12;;;;;;;11.13;10.48;;;;;;;;;;4133838;28;20043;-57
2023/11/08 01:31:14;;;;;;;14.18;13.43;;;;;;;;;;4133779;28;20546;-57
2023/11/08 01:33:16;;;;;;;13.80;12.95;;;;;;;;;;4133124;28;20042;-57
2023/11/08 01:35:21;;;;;;;14.13;13.73;;;;;;;;;;4133745;28;20053;-57
2023/11/08 01:37:22;;;;;;;13.32;12.43;;;;;;;;;;4133745;28;20043;-57
2023/11/08 01:39:24;;;;;;;13.40;12.70;;;;;;;;;;4133719;28;20121;-57
2023/11/08 01:41:26;;;;;;;13.37;12.87;;;;;;;;;;4133958;28;20292;-57
2023/11/08 01:43:28;;;;;;;13.60;12.98;;;;;;;;;;4123917;28;20361;-57
2023/11/08 01:45:30;;;;;;;12.20;11.45;;;;;;;;;;4126239;28;20038;-57
2023/11/08 01:47:35;;;;;;;14.03;13.63;;;;;;;;;;4121016;28;20035;-57
2023/11/08 01:49:38;;;;;;;14.40;13.85;;;;;;;;;;4117736;28;20046;-58
2023/11/08 01:51:42;;;;;;;12.88;12.57;;;;;;;;;;4117691;28;20035;-57
2023/11/08 01:53:45;;;;;;;13.25;12.95;;;;;;;;;;4117328;28;20040;-58
2023/11/08 01:55:46;;;;;;;13.05;12.23;;;;;;;;;;4117310;28;20039;-58
2023/11/08 01:57:48;;;;;;;13.10;12.88;;;;;;;;;;4116616;28;20046;-57
2023/11/08 01:59:51;;;;;;;14.73;13.73;;;;;;;;;;4100276;28;20051;-57
2023/11/08 02:01:57;;;;;;;14.20;13.30;;;;;;;;;;4117647;28;20443;-57
2023/11/08 02:03:59;;;;;;;13.05;12.30;;;;;;;;;;4139593;23;20054;-59
2023/11/08 02:06:02;;;;;;;17.52;16.17;;;;;;;;;;4115382;28;20042;-59
2023/11/08 02:08:05;;;;;;;14.60;13.57;;;;;;;;;;4133208;28;20516;-59
2023/11/08 02:10:08;;;;;;;17.92;16.38;;;;;;;;;;4133110;28;20042;-59
2023/11/08 02:12:11;;;;;;;14.32;13.43;;;;;;;;;;4133185;28;20050;-59
2023/11/08 02:14:13;;;;;;;16.27;15.52;;;;;;;;;;4132850;28;20079;-59
2023/11/08 02:16:14;;;;;;;16.15;14.77;;;;;;;;;;4131632;28;20128;-59
2023/11/08 02:18:16;;;;;;;14.65;14.10;;;;;;;;;;4133120;28;20045;-59
2023/11/08 02:20:18;;;;;;;17.45;16.55;;;;;;;;;;4133054;28;20046;-59
2023/11/08 02:22:20;;;;;;;17.17;16.80;;;;;;;;;;4133245;28;20393;-59
2023/11/08 02:24:22;;;;;;;14.43;14.05;;;;;;;;;;4132979;28;20100;-59
2023/11/08 02:26:23;;;;;;;14.90;13.60;;;;;;;;;;4133016;28;20043;-59
2023/11/08 02:28:26;;;;;;;17.03;15.87;;;;;;;;;;4132978;28;20042;-59
2023/11/08 02:30:27;;;;;;;18.63;17.60;;;;;;;;;;4132825;28;20073;-59
2023/11/08 02:32:32;;;;;;;24.83;22.38;;;;;;;;;;4133188;28;20085;-59
2023/11/08 02:34:34;;;;;;;14.18;13.60;;;;;;;;;;4132993;28;20042;-59
2023/11/08 02:36:36;;;;;;;15.18;14.50;;;;;;;;;;4132827;28;20042;-59
2023/11/08 02:38:38;;;;;;;15.15;14.55;;;;;;;;;;4131385;28;20125;-59
2023/11/08 02:40:41;;;;;;;15.02;14.27;;;;;;;;;;4119374;28;20445;-59
2023/11/08 02:42:43;;;;;;;14.18;13.40;;;;;;;;;;4132673;28;20088;-59
2023/11/08 02:44:45;;;;;;;13.52;12.98;;;;;;;;;;4131765;28;20046;-59
2023/11/08 02:46:47;;;;;;;15.17;13.83;;;;;;;;;;4132007;28;20544;-59
2023/11/08 02:48:49;;;;;;;13.00;12.35;;;;;;;;;;4132653;28;20289;-59
2023/11/08 02:50:51;;;;;;;11.68;11.27;;;;;;;;;;4132471;28;20395;-59
2023/11/08 02:52:53;;;;;;;13.20;12.43;;;;;;;;;;4132287;28;20065;-59
2023/11/08 02:54:55;;;;;;;12.60;11.97;;;;;;;;;;4132522;28;20050;-59
2023/11/08 02:56:56;;;;;;;15.47;13.93;;;;;;;;;;4132459;28;20056;-59
2023/11/08 02:58:58;;;;;;;11.60;11.23;;;;;;;;;;4132696;28;20285;-59
2023/11/08 03:01:00;;;;;;;15.82;15.07;;;;;;;;;;4132660;28;20053;-59
2023/11/08 03:03:01;;;;;;;13.90;12.88;;;;;;;;;;4131957;28;20062;-59
2023/11/08 03:05:03;;;;;;;11.73;11.33;;;;;;;;;;4132176;28;20073;-59
2023/11/08 03:07:05;;;;;;;13.55;12.57;;;;;;;;;;4132212;28;20521;-59
2023/11/08 03:09:08;;;;;;;13.85;12.95;;;;;;;;;;4131380;28;20490;-59
2023/11/08 03:11:10;;;;;;;;;;;;;;;;;;4116698;28;20047;-59
2023/11/08 03:13:11;;;;;;;13.98;13.25;;;;;;;;;;4132116;28;19944;-59
2023/11/08 03:15:14;;;;;;;12.73;11.82;;;;;;;;;;4132153;28;20038;-59
2023/11/08 03:17:17;;;;;;;14.23;13.25;;;;;;;;;;4132184;28;20066;-59
2023/11/08 03:19:20;;;;;;;16.50;15.27;;;;;;;;;;4132035;28;20052;-59
2023/11/08 03:21:22;;;;;;;;;;;;;;;;;;4132858;28;20046;-59
2023/11/08 03:23:23;;;;;;;17.17;15.90;;;;;;;;;;4132015;28;19972;-59
2023/11/08 03:25:25;;;;;;;16.40;15.83;;;;;;;;;;4132082;28;20042;-59
2023/11/08 03:27:26;;;;;;;16.45;15.70;;;;;;;;;;4132065;28;20498;-59
2023/11/08 03:29:30;;;;;;;16.23;15.45;;;;;;;;;;4131821;28;20134;-59
2023/11/08 03:31:32;;;;;;;13.63;13.05;;;;;;;;;;4129999;28;20046;-59
2023/11/08 03:33:34;;;;;;;15.33;14.37;;;;;;;;;;4131937;28;20061;-59
2023/11/08 03:35:36;;;;;;;15.30;14.38;;;;;;;;;;4124933;28;20051;-60
2023/11/08 03:37:38;;;;;;;13.60;12.80;;;;;;;;;;4115835;28;20046;-59
2023/11/08 03:39:40;;;;;;;13.13;12.80;;;;;;;;;;4115588;28;20068;-59
2023/11/08 03:41:41;;;;;;;15.43;14.90;;;;;;;;;;4115812;28;20058;-59
2023/11/08 03:43:43;;;;;;;14.35;13.48;;;;;;;;;;4115683;28;20093;-59
2023/11/08 03:45:45;;;;;;;13.47;12.80;;;;;;;;;;4115629;28;20039;-59
2023/11/08 03:47:46;;;;;;;14.03;13.33;;;;;;;;;;4115421;28;20039;-59
2023/11/08 03:49:48;;;;;;;14.65;13.68;;;;;;;;;;4115562;28;20365;-59
2023/11/08 03:51:50;;;;;;;12.05;11.73;;;;;;;;;;4115486;28;20035;-59
2023/11/08 03:53:52;;;;;;;14.60;14.05;;;;;;;;;;4115525;28;20384;-60
2023/11/08 03:55:54;;;;;;;12.90;12.52;;;;;;;;;;4115311;28;20125;-59
2023/11/08 03:57:55;;;;;;;15.45;14.35;;;;;;;;;;4120329;28;20042;-59
2023/11/08 03:59:57;;;;;;;11.70;11.45;;;;;;;;;;4131598;28;20042;-59
2023/11/08 04:01:59;;;;;;;13.80;13.20;;;;;;;;;;4131665;28;20065;-58
2023/11/08 04:04:00;;;;;;;14.13;13.30;;;;;;;;;;4131007;28;20854;-59
2023/11/08 04:06:02;;;;;;;13.55;13.00;;;;;;;;;;4131643;28;20073;-59
2023/11/08 04:08:06;;;;;;;13.88;13.32;;;;;;;;;;4131268;28;20433;-59
2023/11/08 04:10:10;;;;;;;13.50;12.77;;;;;;;;;;4131361;28;20450;-59
2023/11/08 04:12:12;;;;;;;15.35;14.35;;;;;;;;;;4118607;28;20035;-59
2023/11/08 04:14:15;;;;;;;13.60;13.07;;;;;;;;;;4115555;28;20086;-59
2023/11/08 04:16:17;;;;;;;13.35;13.15;;;;;;;;;;4115647;28;20380;-59
2023/11/08 04:18:19;;;;;;;16.20;15.05;;;;;;;;;;4115354;28;20545;-59
2023/11/08 04:20:20;;;;;;;15.57;15.13;;;;;;;;;;4115370;28;20077;-59
2023/11/08 04:22:22;;;;;;;20.50;18.98;;;;;;;;;;4115597;28;20286;-59
2023/11/08 04:24:24;;;;;;;19.73;19.05;;;;;;;;;;4115637;28;20386;-59
2023/11/08 04:26:26;;;;;;;18.48;17.75;;;;;;;;;;4107867;28;20049;-60
2023/11/08 04:28:28;;;;;;;17.80;17.10;;;;;;;;;;4113826;28;20049;-59
2023/11/08 04:30:29;;;;;;;18.88;17.60;;;;;;;;;;4125351;28;20118;-59
2023/11/08 04:32:31;;;;;;;16.20;15.68;;;;;;;;;;4115217;28;20490;-59
2023/11/08 04:34:33;;;;;;;18.10;16.97;;;;;;;;;;4115288;28;20047;-59
2023/11/08 04:36:36;;;;;;;19.55;18.20;;;;;;;;;;4115293;28;20583;-59
2023/11/08 04:38:38;;;;;;;18.30;17.30;;;;;;;;;;4114928;28;20465;-59
2023/11/08 04:40:40;;;;;;;17.27;16.27;;;;;;;;;;4115069;28;20434;-60
2023/11/08 04:42:42;;;;;;;16.77;15.90;;;;;;;;;;4115299;28;20156;-60
2023/11/08 04:44:47;;;;;;;15.80;15.27;;;;;;;;;;4115248;28;20121;-59
2023/11/08 04:46:48;;;;;;;15.60;15.15;;;;;;;;;;4115026;28;20042;-59
2023/11/08 04:48:50;;;;;;;16.70;15.65;;;;;;;;;;4115419;28;20035;-59
2023/11/08 04:50:53;;;;;;;18.80;17.27;;;;;;;;;;4115329;28;20054;-60
2023/11/08 04:52:54;;;;;;;;;;;;;;;;;;4115699;28;20039;-59
2023/11/08 04:54:57;;;;;;;19.50;18.67;;;;;;;;;;4129328;28;19937;-59
2023/11/08 04:56:59;;;;;;;15.32;14.52;;;;;;;;;;4130756;28;20058;-59
2023/11/08 04:59:01;;;;;;;19.25;18.10;;;;;;;;;;4131209;28;20046;-59
2023/11/08 05:01:03;;;;;;;17.77;16.70;;;;;;;;;;4131382;28;20047;-59
2023/11/08 05:03:04;;;;;;;18.87;17.70;;;;;;;;;;4130722;28;20049;-59
2023/11/08 05:05:09;;;;;;;19.98;18.77;;;;;;;;;;4129926;28;20380;-59
2023/11/08 05:07:11;;;;;;;20.13;19.02;;;;;;;;;;4130880;28;20084;-60
2023/11/08 05:09:15;;;;;;;17.42;16.88;;;;;;;;;;4107813;28;20042;-60
2023/11/08 05:11:18;;;;;;;18.88;17.98;;;;;;;;;;4128988;28;20042;-59
2023/11/08 05:13:19;;;;;;;;;;;;;;;;;;4133532;28;20046;-60
2023/11/08 05:15:23;;;;;;;18.88;18.02;;;;;;;;;;4134237;28;19929;-60
2023/11/08 05:17:25;;;;;;;14.70;14.10;;;;;;;;;;4116707;28;20105;-60
2023/11/08 05:19:27;;;;;;;16.30;15.97;;;;;;;;;;4133800;28;20038;-59
2023/11/08 05:21:29;;;;;;;14.30;13.73;;;;;;;;;;4134005;28;20042;-59
2023/11/08 05:23:31;;;;;;;16.77;15.70;;;;;;;;;;4134064;28;20046;-59
2023/11/08 05:25:33;;;;;;;19.08;17.63;;;;;;;;;;4129391;28;20090;-59
2023/11/08 05:27:36;;;;;;;16.98;16.20;;;;;;;;;;4123193;28;20035;-59
2023/11/08 05:29:37;;;;;;;21.30;20.05;;;;;;;;;;4131152;28;20456;-59
2023/11/08 05:31:39;;;;;;;21.70;20.60;;;;;;;;;;4130813;28;20097;-60
2023/11/08 05:33:41;;;;;;;20.47;19.63;;;;;;;;;;4131099;28;20038;-59
2023/11/08 05:35:43;;;;;;;20.15;18.27;;;;;;;;;;4133675;28;20074;-59
2023/11/08 05:37:45;;;;;;;19.58;18.25;;;;;;;;;;4133929;28;20073;-59
2023/11/08 05:39:47;;;;;;;18.20;17.70;;;;;;;;;;4133179;28;20038;-59
2023/11/08 05:41:50;;;;;;;20.98;20.30;;;;;;;;;;4116225;28;20058;-59
2023/11/08 05:43:57;;;;;;;23.13;19.90;;;;;;;;;;4116144;28;20039;-60
2023/11/08 05:45:59;;;;;;;18.50;18.08;;;;;;;;;;4133582;28;20050;-59
2023/11/08 05:48:03;;;;;;;19.80;18.90;;;;;;;;;;4117447;28;20046;-59
2023/11/08 05:50:10;;;;;;;19.25;18.50;;;;;;;;;;4118519;28;20125;-59
2023/11/08 05:52:13;;;;;;;19.08;18.30;;;;;;;;;;4133667;28;20394;-60
2023/11/08 05:54:15;;;;;;;19.15;17.73;;;;;;;;;;4133516;28;20042;-60
2023/11/08 05:56:17;;;;;;;21.20;17.05;;;;;;;;;;4133383;28;20042;-59
2023/11/08 05:58:20;;;;;;;44.60;18.23;;;;;;;;;;4133355;28;20401;-59
2023/11/08 06:00:21;;;;;;;21.35;18.60;;;;;;;;;;4133060;28;20046;-60
2023/11/08 06:02:23;;;;;;;18.85;17.30;;;;;;;;;;4133600;28;20074;-59
2023/11/08 06:04:25;;;;;;;17.83;16.73;;;;;;;;;;4131506;28;20431;-60
2023/11/08 06:06:27;;;;;;;19.23;18.37;;;;;;;;;;4133413;28;20054;-59
2023/11/08 06:08:29;;;;;;;14.65;13.77;;;;;;;;;;4115588;28;20332;-60
2023/11/08 06:10:32;;;;;;;18.52;17.63;;;;;;;;;;4115785;28;20038;-60
2023/11/08 06:12:34;;;;;;;14.68;14.05;;;;;;;;;;4107053;28;20082;-60
2023/11/08 06:14:36;;;;;;;21.17;19.33;;;;;;;;;;4133106;28;20418;-60
2023/11/08 06:16:40;;;;;;;19.80;19.20;;;;;;;;;;4133024;28;20052;-60
2023/11/08 06:18:42;;;;;;;20.80;18.70;;;;;;;;;;4133035;28;20300;-64
2023/11/08 06:20:44;;;;;;;21.33;20.20;;;;;;;;;;4132544;28;20457;-64
2023/11/08 06:22:45;;;;;;;17.90;17.27;;;;;;;;;;4132993;28;20085;-64
2023/11/08 06:24:47;;;;;;;19.20;17.98;;;;;;;;;;4122385;28;20122;-65
2023/11/08 06:26:50;;;;;;;20.35;19.20;;;;;;;;;;4116763;28;20039;-64
2023/11/08 06:28:52;;;;;;;25.00;20.20;;;;;;;;;;4116810;28;20049;-64
2023/11/08 06:30:54;;;;;;;92.03;23.58;;;;;;;;;;4125774;28;20030;-64
2023/11/08 06:32:56;;;;;;;123.82;23.15;;;;;;;;;;4112189;28;20038;-64
2023/11/08 06:35:00;;;;;;;24.13;21.87;;;;;;;;;;4132186;28;20418;-65
2023/11/08 06:37:02;;;;;;;22.67;20.98;;;;;;;;;;4116440;28;20046;-64
2023/11/08 06:39:04;;;;;;;23.65;19.42;;;;;;;;;;4116445;28;20050;-64
2023/11/08 06:41:06;;;;;;;37.42;19.85;;;;;;;;;;4116402;28;20053;-64
2023/11/08 06:43:08;;;;;;;22.00;20.73;;;;;;;;;;4130156;28;20042;-64
2023/11/08 06:45:09;;;;;;;23.60;21.73;;;;;;;;;;4132422;28;20042;-65
2023/11/08 06:47:11;;;;;;;58.65;20.80;;;;;;;;;;4122797;28;20035;-64
2023/11/08 06:49:13;;;;;;;20.67;19.52;;;;;;;;;;4116502;28;20039;-64
2023/11/08 06:51:14;;;;;;;48.60;21.13;;;;;;;;;;4116336;28;20047;-64
2023/11/08 06:53:17;;;;;;;57.10;23.70;;;;;;;;;;4099122;29;20051;-64
2023/11/08 06:55:19;;;;;;;51.28;23.92;;;;;;;;;;4117074;28;20039;-64
2023/11/08 06:57:36;;;;;;;33.38;24.75;;;;;;;;;;4128136;28;20121;-64
2023/11/08 06:59:37;;;;;;;71.60;21.73;;;;;;;;;;4131785;28;20046;-64
2023/11/08 07:01:40;;;;;;;22.00;20.67;;;;;;;;;;4132316;28;20057;-64
2023/11/08 07:03:42;;;;;;;34.70;21.17;;;;;;;;;;4131806;28;20301;-64
2023/11/08 07:05:44;;;;;;;45.80;19.83;;;;;;;;;;4132188;28;20045;-64
2023/11/08 07:07:46;;;;;;;21.58;20.42;;;;;;;;;;4132295;28;20052;-64
2023/11/08 07:09:49;;;;;;;17.05;16.60;;;;;;;;;;4119365;28;20094;-64
2023/11/08 07:11:50;;;;;;;16.95;16.40;;;;;;;;;;4115934;28;20126;-64
2023/11/08 07:13:52;;;;;;;15.05;14.00;;;;;;;;;;4115955;28;20557;-64
2023/11/08 07:15:54;;;;;;;14.40;13.95;;;;;;;;;;4116223;28;20055;-65
2023/11/08 07:17:56;;;;;;;11.27;10.80;;;;;;;;;;4115942;28;20042;-64
2023/11/08 07:19:59;;;;;;;10.95;10.63;;;;;;;;;;4115606;28;20046;-64
2023/11/08 07:22:00;;;;;;;11.02;10.30;;;;;;;;;;4115984;28;20047;-64
2023/11/08 07:24:02;;;;;;;11.60;11.40;;;;;;;;;;4115787;28;20046;-64
2023/11/08 07:26:04;;;;;;;12.17;11.30;;;;;;;;;;4115983;28;20031;-64
2023/11/08 07:28:07;;;;;;;12.38;11.90;;;;;;;;;;4131774;28;20286;-65
2023/11/08 07:30:11;;;;;;;9.80;9.43;;;;;;;;;;4131818;28;20577;-64
2023/11/08 07:32:14;;;;;;;11.30;10.63;;;;;;;;;;4131204;28;20038;-64
2023/11/08 07:34:16;;;;;;;12.77;12.13;;;;;;;;;;4131818;28;20080;-64
2023/11/08 07:36:18;;;;;;;12.82;11.77;;;;;;;;;;4132023;28;20042;-64
2023/11/08 07:38:20;;;;;;;12.83;12.33;;;;;;;;;;4131996;28;20491;-64
2023/11/08 07:40:22;;;;;;;12.27;10.82;;;;;;;;;;4131562;28;20046;-64
2023/11/08 07:42:26;;;;;;;20.35;12.88;;;;;;;;;;4131763;28;20468;-64
2023/11/08 07:44:30;;;;;;;12.07;11.38;;;;;;;;;;4131724;28;20635;-64
2023/11/08 07:46:32;;;;;;;12.23;11.13;;;;;;;;;;4131894;28;20038;-64
2023/11/08 07:48:34;;;;;;;13.25;12.07;;;;;;;;;;4131660;28;20490;-64
2023/11/08 07:50:36;;;;;;;13.23;12.25;;;;;;;;;;4131830;28;20473;-65
2023/11/08 07:52:37;;;;;;;11.60;10.87;;;;;;;;;;4131607;28;20035;-64
2023/11/08 07:54:39;;;;;;;7.77;7.40;;;;;;;;;;4131623;28;20050;-64
2023/11/08 07:56:41;;;;;;;9.83;7.83;;;;;;;;;;4131837;28;20043;-64
2023/11/08 07:58:42;;;;;;;7.13;6.72;;;;;;;;;;4131673;28;20650;-64
2023/11/08 08:00:45;;;;;;;9.13;6.77;;;;;;;;;;4131832;28;20050;-64
2023/11/08 08:02:48;;;;;;;8.00;7.25;;;;;;;;;;4131473;28;20412;-64
2023/11/08 08:04:49;;;;;;;3.55;3.20;;;;;;;;;;4131347;28;20053;-65
2023/11/08 08:06:51;;;;;;;4.75;4.35;;;;;;;;;;4131449;28;20386;-64
2023/11/08 08:08:55;;;;;;;7.10;5.97;;;;;;;;;;4125877;28;20071;-64
2023/11/08 08:10:57;;;;;;;7.25;6.65;;;;;;;;;;4115412;28;20171;-64
2023/11/08 08:12:58;;;;;;;7.03;6.65;;;;;;;;;;4115403;28;20039;-64
2023/11/08 08:15:00;;;;;;;7.07;6.80;;;;;;;;;;4115235;28;20529;-64
2023/11/08 08:17:02;;;;;;;7.70;7.20;;;;;;;;;;4115195;28;20373;-64
2023/11/08 08:19:05;;;;;;;7.18;6.70;;;;;;;;;;4115426;28;20074;-64
2023/11/08 08:21:07;;;;;;;7.22;6.43;;;;;;;;;;4115119;28;20051;-64
2023/11/08 08:23:09;;;;;;;7.10;6.85;;;;;;;;;;4115502;28;20057;-64
2023/11/08 08:25:11;;;;;;;6.38;6.07;;;;;;;;;;4115193;28;20039;-64
2023/11/08 08:27:13;;;;;;;5.28;4.78;;;;;;;;;;4124718;28;20113;-64
2023/11/08 08:29:15;;;;;;;7.78;5.32;;;;;;;;;;4131382;28;20042;-64
2023/11/08 08:31:17;;;;;;;7.82;6.57;;;;;;;;;;4131299;28;20038;-64
2023/11/08 08:33:19;;;;;;;7.50;6.82;;;;;;;;;;4131262;28;20034;-64
2023/11/08 08:35:23;;;;;;;5.82;5.45;;;;;;;;;;4131640;28;20046;-64
2023/11/08 08:37:24;;;;;;;7.63;6.80;;;;;;;;;;4131398;28;20406;-64
2023/11/08 08:39:27;;;;;;;6.00;5.53;;;;;;;;;;4131112;28;20073;-64
2023/11/08 08:41:30;;;;;;;5.13;4.68;;;;;;;;;;4131227;28;20045;-64
2023/11/08 08:43:32;;;;;;;3.92;3.60;;;;;;;;;;4132355;28;20058;-64
2023/11/08 08:45:33;;;;;;;5.77;5.27;;;;;;;;;;4134495;28;20038;-64
2023/11/08 08:47:36;;;;;;;7.03;4.63;;;;;;;;;;4134375;28;20038;-64
2023/11/08 08:49:45;;;;;;;6.13;4.97;;;;;;;;;;4134355;28;20058;-65
2023/11/08 08:51:47;;;;;;;6.35;5.53;;;;;;;;;;4134466;28;20120;-65
2023/11/08 08:53:49;;;;;;;5.47;4.55;;;;;;;;;;4134233;28;20073;-64
2023/11/08 08:55:50;;;;;;;6.23;4.10;;;;;;;;;;4134321;28;20062;-64
2023/11/08 08:57:52;;;;;;;4.33;3.97;;;;;;;;;;4134342;28;20112;-64
2023/11/08 08:59:54;;;;;;;3.87;3.73;;;;;;;;;;4134467;28;20552;-65
2023/11/08 09:01:55;;;;;;;6.23;4.37;;;;;;;;;;4134356;28;20042;-64
2023/11/08 09:03:57;;;;;;;7.28;3.72;;;;;;;;;;4133716;28;20290;-64
2023/11/08 09:05:59;;;;;;;6.63;4.90;;;;;;;;;;4134138;28;20050;-64
2023/11/08 09:08:02;;;;;;;105.05;73.72;;;;;;;;;;4134197;28;20064;-64
2023/11/08 09:10:04;;;;;;;14.68;11.25;;;;;;;;;;4119305;28;20042;-64
2023/11/08 09:12:07;;;;;;;;;;;;;;;;;;4118398;28;20566;-64
2023/11/08 09:14:09;;;;;;;449.17;290.20;;;;;;;;;;4117921;28;19925;-65
2023/11/08 09:16:11;;;;;;;394.83;285.63;;;;;;;;;;4117823;28;20050;-65
2023/11/08 09:18:14;;;;;;;25.52;22.65;;;;;;;;;;4117783;28;20042;-64
2023/11/08 09:20:15;;;;;;;10.13;7.68;;;;;;;;;;4118394;28;20553;-64
2023/11/08 09:22:17;;;;;;;10.88;5.28;;;;;;;;;;4117852;28;20053;-64
2023/11/08 09:24:20;;;;;;;8.15;4.25;;;;;;;;;;4117611;28;20450;-65
2023/11/08 09:26:21;;;;;;;7.82;3.88;;;;;;;;;;4120430;28;20093;-65
2023/11/08 09:28:24;;;;;;;7.32;4.90;;;;;;;;;;4133701;28;20595;-65
2023/11/08 09:30:25;;;;;;;9.07;4.95;;;;;;;;;;4116667;28;20126;-65
2023/11/08 09:32:27;;;;;;;5.63;3.85;;;;;;;;;;4133771;28;20042;-65
2023/11/08 09:34:30;;;;;;;11.88;5.53;;;;;;;;;;4133706;28;20157;-65
2023/11/08 09:36:32;;;;;;;6.68;3.60;;;;;;;;;;4133995;28;20490;-65
2023/11/08 09:38:34;;;;;;;5.38;4.43;;;;;;;;;;4133611;28;20510;-65
2023/11/08 09:40:36;;;;;;;10.32;4.47;;;;;;;;;;4133607;28;20054;-65
2023/11/08 09:42:38;;;;;;;3.57;3.27;;;;;;;;;;4133665;28;20107;-65
2023/11/08 09:44:41;;;;;;;6.53;3.38;;;;;;;;;;4133469;28;20039;-65
2023/11/08 09:46:44;;;;;;;9.98;3.22;;;;;;;;;;4123597;28;20438;-65
2023/11/08 09:48:45;;;;;;;;;;;;;;;;;;4123146;28;20394;-65
2023/11/08 09:50:47;;;;;;;17.52;4.32;;;;;;;;;;4133577;28;19926;-65
2023/11/08 09:52:50;;;;;;;4.75;4.35;;;;;;;;;;4133475;28;20085;-65
2023/11/08 09:54:52;;;;;;;14.00;4.95;;;;;;;;;;4133124;28;20058;-64
2023/11/08 09:56:54;;;;;;;6.55;5.05;;;;;;;;;;4133547;28;20034;-64
2023/11/08 09:58:56;;;;;;;6.70;4.63;;;;;;;;;;4133507;28;20065;-64
2023/11/08 10:00:59;;;;;;;8.15;4.40;;;;;;;;;;4133351;28;20043;-64
2023/11/08 10:03:02;;;;;;;5.85;3.25;;;;;;;;;;4115687;28;20053;-65
2023/11/08 10:05:05;;;;;;;8.82;4.70;;;;;;;;;;4133457;28;20045;-64
2023/11/08 10:07:07;;;;;;;13.23;4.63;;;;;;;;;;4133440;28;20098;-64
2023/11/08 10:09:11;;;;;;;10.43;3.40;;;;;;;;;;4125551;28;20047;-65
2023/11/08 10:11:14;;;;;;;2.25;1.60;;;;;;;;;;4117072;28;20035;-64
2023/11/08 10:13:19;;;;;;;3.03;2.10;;;;;;;;;;4117403;28;20118;-65
2023/11/08 10:15:23;;;;;;;5.20;2.10;;;;;;;;;;4117138;28;20039;-64
2023/11/08 10:17:35;;;;;;;3.70;1.75;;;;;;;;;;4116962;28;20406;-64
2023/11/08 10:19:57;;;;;;;3.10;1.63;;;;;;;;;;4117064;28;20047;-64
2023/11/08 10:22:01;;;;;;;3.45;1.63;;;;;;;;;;4117229;28;20550;-64
2023/11/08 10:24:10;;;;;;;7.05;3.42;;;;;;;;;;4116869;28;20043;-64
2023/11/08 10:26:14;;;;;;;3.15;1.98;;;;;;;;;;4118194;28;20399;-64
2023/11/08 10:28:16;;;;;;;2.78;2.10;;;;;;;;;;4132897;28;20410;-64
2023/11/08 10:30:20;;;;;;;20.63;14.93;;;;;;;;;;4132905;28;20043;-64
2023/11/08 10:32:24;;;;;;;9.45;5.97;;;;;;;;;;4132892;28;20037;-64
2023/11/08 10:34:27;;;;;;;6.60;3.60;;;;;;;;;;4115560;28;20046;-64
2023/11/08 10:36:29;;;;;;;6.82;4.35;;;;;;;;;;4132892;28;20045;-64
2023/11/08 10:38:34;;;;;;;4.55;4.15;;;;;;;;;;4132879;28;20050;-64
2023/11/08 10:40:36;;;;;;;3.37;3.03;;;;;;;;;;4132737;28;20042;-64
2023/11/08 10:42:38;;;;;;;4.78;1.95;;;;;;;;;;4130177;28;20039;-64
2023/11/08 10:44:40;;;;;;;3.03;2.28;;;;;;;;;;4127118;28;20046;-64
2023/11/08 10:46:42;;;;;;;4.03;3.72;;;;;;;;;;4130783;28;20802;-64
2023/11/08 10:48:44;;;;;;;3.42;2.72;;;;;;;;;;4131302;28;20157;-64
2023/11/08 10:50:47;;;;;;;7.38;4.18;;;;;;;;;;4132604;28;20076;-64
2023/11/08 10:52:49;;;;;;;2.60;2.42;;;;;;;;;;4131207;28;20050;-64
2023/11/08 10:54:51;;;;;;;2.97;2.67;;;;;;;;;;4132460;28;20047;-64
2023/11/08 10:56:55;;;;;;;4.32;2.72;;;;;;;;;;4132570;28;20039;-64
2023/11/08 10:58:59;;;;;;;2.25;2.08;;;;;;;;;;4132272;28;20039;-64
2023/11/08 11:01:04;;;;;;;3.53;1.77;;;;;;;;;;4132762;28;20379;-64
2023/11/08 11:03:08;;;;;;;4.25;2.00;;;;;;;;;;4132169;28;20050;-64
2023/11/08 11:05:14;;;;;;;3.08;1.30;;;;;;;;;;4128718;28;20109;-64
2023/11/08 11:07:17;;;;;;;3.13;2.00;;;;;;;;;;4115601;28;20049;-64
2023/11/08 11:09:18;;;;;;;1.10;1.10;;;;;;;;;;4121885;28;20042;-64
2023/11/08 11:11:21;;;;;;;1.90;1.80;;;;;;;;;;4114845;28;20431;-64
2023/11/08 11:13:22;;;;;;;;;;;;;;;;;;4115409;28;20034;-64
2023/11/08 11:15:33;;;;;;;1.80;1.25;;;;;;;;;;4131191;28;19968;-64
2023/11/08 11:17:37;;;;;;;1.80;1.30;;;;;;;;;;4129463;28;20059;-64
2023/11/08 11:19:41;;;;;;;3.47;1.70;;;;;;;;;;4114838;28;20055;-64
2023/11/08 11:21:54;;;;;;;3.03;1.95;;;;;;;;;;4131115;28;20049;-65
2023/11/08 11:23:55;;;;;;;7.03;2.17;;;;;;;;;;4132145;28;20509;-64
2023/11/08 11:25:58;;;;;;;1.20;1.10;;;;;;;;;;4130567;28;20529;-63
2023/11/08 11:28:00;;;;;;;2.00;1.90;;;;;;;;;;4121111;28;20093;-64
2023/11/08 11:30:14;;;;;;;1.73;1.63;;;;;;;;;;4130518;28;20039;-64
2023/11/08 11:32:33;;;;;;;2.03;1.92;;;;;;;;;;4130739;28;20046;-64
2023/11/08 11:34:37;;;;;;;2.53;1.65;;;;;;;;;;4130601;28;20038;-64
2023/11/08 11:37:05;;;;;;;2.28;1.70;;;;;;;;;;4130696;28;20045;-64
2023/11/08 11:39:12;;;;;;;2.33;1.40;;;;;;;;;;4127121;28;20058;-64
2023/11/08 11:41:18;;;;;;;2.10;1.95;;;;;;;;;;4113418;28;20061;-63
2023/11/08 11:43:46;;;;;;;1.70;1.60;;;;;;;;;;4131562;28;20101;-64
2023/11/08 11:45:51;;;;;;;2.45;1.33;;;;;;;;;;4129011;28;20109;-65
2023/11/08 11:47:53;;;;;;;1.10;1.00;;;;;;;;;;4125593;28;20129;-63
2023/11/08 11:50:01;;;;;;;1.70;1.63;;;;;;;;;;4130417;28;20528;-64
2023/11/08 11:52:03;;;;;;;1.52;1.42;;;;;;;;;;4130687;28;20173;-64
2023/11/08 11:54:05;;;;;;;1.02;1.00;;;;;;;;;;4131531;28;20038;-64
2023/11/08 11:56:07;;;;;;;2.55;1.50;;;;;;;;;;4129772;28;20042;-64
2023/11/08 11:58:09;;;;;;;2.00;1.65;;;;;;;;;;4124279;28;20049;-63
2023/11/08 12:00:12;;;;;;;1.60;1.40;;;;;;;;;;4122183;28;20566;-64
2023/11/08 12:02:14;;;;;;;1.35;1.25;;;;;;;;;;4126593;28;20031;-64
2023/11/08 12:04:21;;;;;;;1.50;1.50;;;;;;;;;;4127621;28;20391;-64